createdAt,value
2023-05-10T00:00:14.480Z,100106.81
2023-05-10T00:02:42.384Z,100103.88
2023-05-10T00:05:11.331Z,100105.44
2023-05-10T00:07:38.934Z,100099.78
2023-05-10T00:10:07.557Z,100103.72
2023-05-10T00:12:35.024Z,100099.16
2023-05-10T00:15:03.889Z,100106.97
2023-05-10T00:17:31.927Z,100102.41
2023-05-10T00:19:59.650Z,100107.66
2023-05-10T00:22:27.078Z,100106.25
2023-05-10T00:24:54.874Z,100101.31
2023-05-10T00:27:22.869Z,100093.38
2023-05-10T00:29:50.155Z,100101.22
2023-05-10T00:32:18.946Z,100098.94
2023-05-10T00:34:46.433Z,100097.91
2023-05-10T00:37:13.846Z,100092.97
2023-05-10T00:39:43.235Z,100096.22
2023-05-10T00:42:10.761Z,100090.63
2023-05-10T00:44:38.038Z,100094.25
2023-05-10T00:47:06.763Z,100103.03
2023-05-10T00:49:34.665Z,100090.22
2023-05-10T00:52:06.174Z,100099.47
2023-05-10T00:54:33.960Z,100090.69
2023-05-10T00:57:04.268Z,100098.16
2023-05-10T00:59:32.587Z,100093.44
2023-05-10T01:01:59.821Z,100097.47
2023-05-10T01:04:27.703Z,100091.78
2023-05-10T01:06:55.298Z,100091.28
2023-05-10T01:09:22.705Z,100093.12
2023-05-10T01:11:50.679Z,100092.22
2023-05-10T01:14:18.896Z,100091.44
2023-05-10T01:16:46.687Z,100089.19
2023-05-10T01:19:18.368Z,100088.34
2023-05-10T01:22:04.950Z,100084.91
2023-05-10T01:24:56.482Z,100086.12
2023-05-10T01:27:42.992Z,100093.34
2023-05-10T01:30:29.460Z,100089.66
2023-05-10T01:33:09.599Z,100090.28
2023-05-10T01:35:44.451Z,100089.59
2023-05-10T01:38:12.230Z,100084.63
2023-05-10T01:40:41.517Z,100088.03
2023-05-10T01:43:09.616Z,100092.00
2023-05-10T01:45:43.259Z,100089.25
2023-05-10T01:48:17.052Z,100086.69
2023-05-10T01:50:45.094Z,100080.69
2023-05-10T01:53:12.958Z,100080.00
2023-05-10T01:55:41.337Z,100089.25
2023-05-10T01:58:10.110Z,100087.13
2023-05-10T02:00:37.595Z,100080.03
2023-05-10T02:03:07.730Z,100080.84
2023-05-10T02:05:35.180Z,100076.41
2023-05-10T02:08:02.860Z,100068.41
2023-05-10T02:10:30.799Z,100062.12
2023-05-10T02:12:59.775Z,100072.56
2023-05-10T02:15:27.513Z,100060.22
2023-05-10T02:17:57.128Z,100068.19
2023-05-10T02:20:24.641Z,100066.50
2023-05-10T02:22:52.849Z,100061.94
2023-05-10T02:25:21.183Z,100056.81
2023-05-10T02:27:48.862Z,100056.63
2023-05-10T02:30:16.596Z,100054.91
2023-05-10T02:32:44.318Z,100061.41
2023-05-10T02:35:12.278Z,100053.00
2023-05-10T02:37:40.383Z,100057.66
2023-05-10T02:40:09.104Z,100058.50
2023-05-10T02:42:38.656Z,100058.41
2023-05-10T02:45:12.285Z,100058.00
2023-05-10T02:47:40.099Z,100064.53
2023-05-10T02:50:09.270Z,100059.91
2023-05-10T02:53:04.509Z,100054.06
2023-05-10T02:55:34.234Z,100052.69
2023-05-10T02:58:02.480Z,100066.38
2023-05-10T03:00:30.363Z,100058.72
2023-05-10T03:02:58.349Z,100063.00
2023-05-10T03:05:27.045Z,100062.50
2023-05-10T03:07:56.663Z,100045.09
2023-05-10T03:10:26.471Z,100054.97
2023-05-10T03:13:05.021Z,100059.81
2023-05-10T03:15:45.478Z,100052.44
2023-05-10T03:18:31.957Z,100052.56
2023-05-10T03:21:02.055Z,100055.25
2023-05-10T03:23:50.212Z,100060.56
2023-05-10T03:26:21.693Z,100052.00
2023-05-10T03:28:53.786Z,100052.34
2023-05-10T03:31:22.389Z,100060.47
2023-05-10T03:33:53.177Z,100069.19
2023-05-10T03:36:22.464Z,100056.97
2023-05-10T03:38:50.750Z,100067.37
2023-05-10T03:41:18.356Z,100056.59
2023-05-10T03:43:45.959Z,100055.41
2023-05-10T03:46:14.066Z,100054.16
2023-05-10T03:48:41.863Z,100053.72
2023-05-10T03:51:10.560Z,100053.38
2023-05-10T03:53:39.103Z,100060.22
2023-05-10T03:56:06.364Z,100061.72
2023-05-10T03:58:34.238Z,100061.81
2023-05-10T04:01:02.049Z,100057.44
2023-05-10T04:03:32.681Z,100058.56
2023-05-10T04:06:03.532Z,100053.59
2023-05-10T04:08:31.711Z,100055.91
2023-05-10T04:11:09.222Z,100048.69
2023-05-10T04:13:37.448Z,100059.28
2023-05-10T04:16:05.524Z,100058.59
2023-05-10T04:18:44.216Z,100054.72
2023-05-10T04:21:17.165Z,100058.06
2023-05-10T04:23:45.662Z,100054.91
2023-05-10T04:26:13.986Z,100060.56
2023-05-10T04:28:41.510Z,100059.12
2023-05-10T04:31:17.108Z,100065.41
2023-05-10T04:33:49.362Z,100065.94
2023-05-10T04:36:17.983Z,100071.84
2023-05-10T04:38:46.312Z,100066.19
2023-05-10T04:41:14.137Z,100074.19
2023-05-10T04:43:41.981Z,100069.84
2023-05-10T04:46:10.838Z,100069.00
2023-05-10T04:48:39.237Z,100065.41
2023-05-10T04:51:08.322Z,100069.94
2023-05-10T04:53:36.902Z,100064.84
2023-05-10T04:56:08.571Z,100063.72
2023-05-10T04:58:37.307Z,100059.34
2023-05-10T05:01:09.514Z,100058.06
2023-05-10T05:03:39.702Z,100066.22
2023-05-10T05:06:07.798Z,100064.88
2023-05-10T05:08:38.093Z,100060.47
2023-05-10T05:11:06.237Z,100063.47
2023-05-10T05:13:34.473Z,100066.72
2023-05-10T05:16:04.098Z,100067.09
2023-05-10T05:18:37.000Z,100065.47
2023-05-10T05:21:05.443Z,100063.38
2023-05-10T05:23:34.926Z,100061.16
2023-05-10T05:26:02.887Z,100063.59
2023-05-10T05:28:33.934Z,100062.84
2023-05-10T05:31:05.920Z,100069.94
2023-05-10T05:33:36.262Z,100068.63
2023-05-10T05:36:08.541Z,100065.22
2023-05-10T05:38:37.818Z,100071.13
2023-05-10T05:41:07.583Z,100070.16
2023-05-10T05:43:38.471Z,100074.94
2023-05-10T05:46:06.605Z,100082.91
2023-05-10T05:48:34.384Z,100085.13
2023-05-10T05:51:02.833Z,100072.84
2023-05-10T05:53:30.987Z,100081.50
2023-05-10T05:55:59.785Z,100086.75
2023-05-10T05:58:29.164Z,100085.63
2023-05-10T06:00:57.877Z,100082.13
2023-05-10T06:03:33.760Z,100084.31
2023-05-10T06:06:05.793Z,100088.25
2023-05-10T06:08:35.089Z,100086.91
2023-05-10T06:11:05.220Z,100080.75
2023-05-10T06:13:37.628Z,100079.56
2023-05-10T06:16:06.816Z,100081.63
2023-05-10T06:18:35.140Z,100089.16
2023-05-10T06:21:07.760Z,100078.53
2023-05-10T06:23:37.868Z,100091.94
2023-05-10T06:26:09.444Z,100096.53
2023-05-10T06:28:41.164Z,100105.19
2023-05-10T06:31:09.491Z,100097.13
2023-05-10T06:33:38.028Z,100095.31
2023-05-10T06:36:05.691Z,100111.47
2023-05-10T06:38:34.776Z,100090.41
2023-05-10T06:41:11.552Z,100097.56
2023-05-10T06:43:42.533Z,100085.13
2023-05-10T06:46:11.721Z,100091.59
2023-05-10T06:48:45.127Z,100093.97
2023-05-10T06:51:13.124Z,100095.41
2023-05-10T06:53:44.324Z,100102.47
2023-05-10T06:56:18.105Z,100094.22
2023-05-10T06:58:46.249Z,100091.37
2023-05-10T07:01:19.304Z,100087.78
2023-05-10T07:03:47.549Z,100085.88
2023-05-10T07:06:29.465Z,100086.56
2023-05-10T07:09:02.461Z,100087.22
2023-05-10T07:11:30.678Z,100087.41
2023-05-10T07:14:00.805Z,100089.97
2023-05-10T07:16:29.110Z,100093.19
2023-05-10T07:18:58.613Z,100086.59
2023-05-10T07:21:31.153Z,100087.41
2023-05-10T07:24:02.117Z,100084.63
2023-05-10T07:26:30.772Z,100081.97
2023-05-10T07:28:58.686Z,100093.25
2023-05-10T07:31:26.090Z,100091.59
2023-05-10T07:33:54.500Z,100086.81
2023-05-10T07:36:22.164Z,100075.13
2023-05-10T07:38:51.418Z,100074.22
2023-05-10T07:41:19.066Z,100077.69
2023-05-10T07:43:47.921Z,100079.59
2023-05-10T07:46:15.886Z,100071.37
2023-05-10T07:48:43.864Z,100063.31
2023-05-10T07:51:13.753Z,100070.72
2023-05-10T07:53:43.626Z,100078.34
2023-05-10T07:58:55.056Z,100075.75
2023-05-10T08:01:23.444Z,100089.06
2023-05-10T08:03:54.662Z,100073.72
2023-05-10T08:06:23.401Z,100080.66
2023-05-10T08:08:51.763Z,100073.44
2023-05-10T08:11:19.746Z,100074.28
2023-05-10T08:13:47.807Z,100072.75
2023-05-10T08:16:19.532Z,100086.56
2023-05-10T08:18:48.109Z,100089.44
2023-05-10T08:21:16.754Z,100075.81
2023-05-10T08:23:45.378Z,100079.44
2023-05-10T08:26:13.220Z,100068.63
2023-05-10T08:28:41.472Z,100070.44
2023-05-10T08:31:10.138Z,100063.03
2023-05-10T08:33:38.961Z,100070.19
2023-05-10T08:36:11.132Z,100059.59
2023-05-10T08:38:39.062Z,100065.28
2023-05-10T08:41:07.310Z,100069.53
2023-05-10T08:43:37.164Z,100069.47
2023-05-10T08:46:07.114Z,100059.62
2023-05-10T08:48:36.648Z,100062.59
2023-05-10T08:51:04.798Z,100065.84
2023-05-10T08:53:35.033Z,100063.50
2023-05-10T08:56:04.410Z,100064.16
2023-05-10T08:58:35.452Z,100048.72
2023-05-10T09:01:07.155Z,100069.06
2023-05-10T09:03:39.166Z,100067.28
2023-05-10T09:06:09.249Z,100064.19
2023-05-10T09:08:47.246Z,100065.03
2023-05-10T09:11:16.252Z,100059.91
2023-05-10T09:13:44.969Z,100060.28
2023-05-10T09:16:21.292Z,100056.38
2023-05-10T09:19:03.284Z,100051.63
2023-05-10T09:21:34.193Z,100039.56
2023-05-10T09:24:06.827Z,100057.56
2023-05-10T09:26:37.050Z,100058.28
2023-05-10T09:29:09.518Z,100050.03
2023-05-10T09:31:55.611Z,100053.94
2023-05-10T09:34:31.448Z,100049.09
2023-05-10T09:37:06.112Z,100041.75
2023-05-10T09:39:34.631Z,100050.16
2023-05-10T09:42:04.990Z,100045.78
2023-05-10T09:44:36.348Z,100043.69
2023-05-10T09:47:06.115Z,100038.03
2023-05-10T09:49:36.145Z,100044.72
2023-05-10T09:52:08.192Z,100049.69
2023-05-10T09:54:43.295Z,100043.72
2023-05-10T09:57:22.904Z,100040.53
2023-05-10T09:59:52.140Z,100040.41
2023-05-10T10:02:22.790Z,100036.72
2023-05-10T10:04:55.414Z,100042.00
2023-05-10T10:07:27.158Z,100033.72
2023-05-10T10:09:56.166Z,100021.25
2023-05-10T10:12:24.413Z,100018.19
2023-05-10T10:14:55.741Z,100019.78
2023-05-10T10:17:27.147Z,100024.63
2023-05-10T10:19:56.525Z,100032.00
2023-05-10T10:22:25.511Z,100017.28
2023-05-10T10:24:53.569Z,100013.66
2023-05-10T10:27:38.167Z,100018.88
2023-05-10T10:30:17.701Z,100011.53
2023-05-10T10:33:13.213Z,100011.13
2023-05-10T10:35:51.300Z,100003.06
2023-05-10T10:38:25.070Z,100015.41
2023-05-10T10:41:15.357Z,100004.97
2023-05-10T10:43:46.501Z,100013.47
2023-05-10T10:46:20.183Z,100009.84
2023-05-10T10:48:49.091Z,99999.69
2023-05-10T10:51:17.676Z,99992.28
2023-05-10T10:53:45.758Z,99996.38
2023-05-10T10:56:16.405Z,99998.28
2023-05-10T10:58:57.243Z,99991.44
2023-05-10T11:01:42.166Z,99981.69
2023-05-10T11:04:09.996Z,99977.03
2023-05-10T11:06:38.698Z,99964.56
2023-05-10T11:09:07.085Z,99969.03
2023-05-10T11:11:37.532Z,99969.00
2023-05-10T11:14:08.199Z,99968.47
2023-05-10T11:16:43.979Z,99964.66
2023-05-10T11:19:13.201Z,99964.41
2023-05-10T11:22:00.383Z,99972.94
2023-05-10T11:24:29.225Z,99962.72
2023-05-10T11:26:58.204Z,99973.94
2023-05-10T11:29:27.285Z,99962.34
2023-05-10T11:31:57.832Z,99957.63
2023-05-10T11:34:29.436Z,99956.41
2023-05-10T11:37:00.165Z,99963.47
2023-05-10T11:39:29.572Z,99952.25
2023-05-10T11:41:58.669Z,99952.56
2023-05-10T11:44:32.492Z,99950.06
2023-05-10T11:47:01.664Z,99950.25
2023-05-10T11:49:30.869Z,99943.38
2023-05-10T11:52:13.543Z,99948.94
2023-05-10T11:54:55.167Z,99950.59
2023-05-10T11:57:33.503Z,99952.75
2023-05-10T12:00:04.916Z,99943.72
2023-05-10T12:02:35.580Z,99936.59
2023-05-10T12:05:09.718Z,99945.63
2023-05-10T12:07:37.700Z,99950.69
2023-05-10T12:10:10.047Z,99950.59
2023-05-10T12:12:46.228Z,99939.22
2023-05-10T12:15:23.646Z,99942.34
2023-05-10T12:17:59.460Z,99951.62
2023-05-10T12:20:28.712Z,99953.72
2023-05-10T12:23:00.311Z,99945.63
2023-05-10T12:25:33.722Z,99941.41
2023-05-10T12:28:04.590Z,99937.03
2023-05-10T12:30:34.075Z,99931.28
2023-05-10T12:33:17.217Z,99927.06
2023-05-10T12:35:50.508Z,99938.31
2023-05-10T12:38:51.093Z,99918.53
2023-05-10T12:41:20.080Z,99913.53
2023-05-10T12:43:50.135Z,99921.19
2023-05-10T12:46:24.266Z,99924.97
2023-05-10T12:49:07.673Z,99925.25
2023-05-10T12:51:35.992Z,99914.63
2023-05-10T12:54:08.200Z,99910.66
2023-05-10T12:56:38.684Z,99907.31
2023-05-10T12:59:08.124Z,99910.13
2023-05-10T13:01:39.046Z,99905.88
2023-05-10T13:04:07.067Z,99899.94
2023-05-10T13:06:36.027Z,99903.19
2023-05-10T13:09:06.108Z,99904.09
2023-05-10T13:11:35.627Z,99904.03
2023-05-10T13:14:04.922Z,99906.19
2023-05-10T13:16:39.205Z,99895.44
2023-05-10T13:19:19.335Z,99886.37
2023-05-10T13:21:48.671Z,99873.91
2023-05-10T13:24:16.844Z,99886.69
2023-05-10T13:26:48.712Z,99882.97
2023-05-10T13:29:19.245Z,99870.41
2023-05-10T13:31:48.432Z,99874.81
2023-05-10T13:34:21.762Z,99865.00
2023-05-10T13:36:50.054Z,99861.44
2023-05-10T13:39:27.844Z,99865.34
2023-05-10T13:41:57.162Z,99873.13
2023-05-10T13:44:32.403Z,99857.81
2023-05-10T13:47:06.137Z,99859.94
2023-05-10T13:49:35.641Z,99864.25
2023-05-10T13:52:07.837Z,99855.87
2023-05-10T13:54:40.122Z,99857.00
2023-05-10T13:57:09.604Z,99838.19
2023-05-10T13:59:43.092Z,99842.59
2023-05-10T14:02:18.611Z,99833.87
2023-05-10T14:05:10.488Z,99831.06
2023-05-10T14:10:47.695Z,99831.00
2023-05-10T14:13:23.568Z,99829.94
2023-05-10T14:16:14.621Z,99832.97
2023-05-10T14:18:48.279Z,99824.06
2023-05-10T14:21:16.585Z,99822.41
2023-05-10T14:23:46.224Z,99817.44
2023-05-10T14:26:17.575Z,99823.56
2023-05-10T14:28:45.952Z,99819.38
2023-05-10T14:31:15.488Z,99822.22
2023-05-10T14:33:45.166Z,99820.50
2023-05-10T14:36:14.519Z,99821.59
2023-05-10T14:38:45.085Z,99810.56
2023-05-10T14:41:18.919Z,99809.00
2023-05-10T14:43:47.315Z,99806.53
2023-05-10T14:48:56.405Z,99807.12
2023-05-10T14:51:26.485Z,99806.97
2023-05-10T14:54:01.774Z,99811.22
2023-05-10T14:56:39.177Z,99804.78
2023-05-10T14:59:16.397Z,99798.16
2023-05-10T15:01:47.282Z,99797.94
2023-05-10T15:04:20.123Z,99802.31
2023-05-10T15:06:55.335Z,99806.62
2023-05-10T15:09:28.804Z,99814.62
2023-05-10T15:12:05.096Z,99794.97
2023-05-10T15:14:37.185Z,99805.97
2023-05-10T15:17:11.216Z,99796.81
2023-05-10T15:19:39.286Z,99808.19
2023-05-10T15:22:13.210Z,99799.81
2023-05-10T15:24:41.942Z,99797.13
2023-05-10T15:27:16.006Z,99808.06
2023-05-10T15:29:47.276Z,99807.22
2023-05-10T15:32:16.547Z,99809.13
2023-05-10T15:34:53.168Z,99812.34
2023-05-10T15:37:23.126Z,99822.81
2023-05-10T15:40:04.982Z,99812.22
2023-05-10T15:42:39.234Z,99809.72
2023-05-10T15:45:08.117Z,99806.84
2023-05-10T15:47:35.969Z,99812.66
2023-05-10T15:50:04.802Z,99808.03
2023-05-10T15:52:34.303Z,99805.84
2023-05-10T15:55:05.122Z,99811.06
2023-05-10T15:57:36.941Z,99806.84
2023-05-10T16:00:06.196Z,99806.59
2023-05-10T16:02:41.914Z,99814.22
2023-05-10T16:05:15.871Z,99810.81
2023-05-10T16:07:44.720Z,99812.13
2023-05-10T16:10:17.382Z,99812.78
2023-05-10T16:12:52.452Z,99804.72
2023-05-10T16:15:27.846Z,99803.75
2023-05-10T16:18:03.593Z,99813.50
2023-05-10T16:20:33.289Z,99810.28
2023-05-10T16:23:15.315Z,99809.84
2023-05-10T16:25:46.473Z,99800.88
2023-05-10T16:30:50.763Z,99800.59
2023-05-10T16:33:23.452Z,99818.03
2023-05-10T16:35:53.415Z,99813.94
2023-05-10T16:38:34.306Z,99818.81
2023-05-10T16:41:12.243Z,99816.94
2023-05-10T16:43:40.631Z,99825.69
2023-05-10T16:46:17.909Z,99815.19
2023-05-10T16:48:50.218Z,99815.38
2023-05-10T16:51:24.438Z,99819.66
2023-05-10T16:53:56.265Z,99813.31
2023-05-10T16:56:28.424Z,99823.59
2023-05-10T16:58:56.753Z,99821.69
2023-05-10T17:01:34.187Z,99818.56
2023-05-10T17:04:10.306Z,99823.53
2023-05-10T17:06:48.261Z,99830.94
2023-05-10T17:09:30.311Z,99826.59
2023-05-10T17:12:00.206Z,99835.50
2023-05-10T17:14:33.228Z,99838.41
2023-05-10T17:17:04.302Z,99833.75
2023-05-10T17:19:32.459Z,99845.50
2023-05-10T17:22:13.495Z,99844.38
2023-05-10T17:24:47.399Z,99843.63
2023-05-10T17:27:24.344Z,99838.56
2023-05-10T17:29:58.701Z,99846.44
2023-05-10T17:32:30.727Z,99839.38
2023-05-10T17:34:59.386Z,99843.41
2023-05-10T17:40:07.286Z,99847.75
2023-05-10T17:42:41.205Z,99853.72
2023-05-10T17:45:16.728Z,99851.88
2023-05-10T17:47:47.591Z,99848.06
2023-05-10T17:50:21.322Z,99859.84
2023-05-10T17:55:27.187Z,99852.75
2023-05-10T17:58:02.947Z,99854.84
2023-05-10T18:00:40.315Z,99860.81
2023-05-10T18:03:09.572Z,99861.72
2023-05-10T18:05:41.220Z,99860.69
2023-05-10T18:08:14.418Z,99862.75
2023-05-10T18:10:47.296Z,99861.72
2023-05-10T18:13:18.215Z,99864.72
2023-05-10T18:15:48.469Z,99873.41
2023-05-10T18:18:17.128Z,99872.56
2023-05-10T18:20:47.215Z,99871.53
2023-05-10T18:25:55.647Z,99885.22
2023-05-10T18:28:25.291Z,99882.16
2023-05-10T18:30:57.560Z,99879.84
2023-05-10T18:33:29.731Z,99888.94
2023-05-10T18:36:07.444Z,99894.34
2023-05-10T18:38:40.290Z,99896.13
2023-05-10T18:41:18.304Z,99899.59
2023-05-10T18:46:36.881Z,99909.94
2023-05-10T18:49:08.645Z,99907.91
2023-05-10T18:51:41.559Z,99907.00
2023-05-10T18:54:10.804Z,99908.25
2023-05-10T18:56:48.338Z,99912.19
2023-05-10T18:59:22.293Z,99910.69
2023-05-10T19:01:54.242Z,99924.94
2023-05-10T19:04:29.502Z,99919.94
2023-05-10T19:07:02.264Z,99915.56
2023-05-10T19:09:40.334Z,99925.53
2023-05-10T19:12:09.380Z,99927.72
2023-05-10T19:14:43.603Z,99920.06
2023-05-10T19:17:20.120Z,99922.97
2023-05-10T19:19:57.423Z,99924.03
2023-05-10T19:22:54.305Z,99930.63
2023-05-10T19:25:33.602Z,99930.34
2023-05-10T19:28:05.775Z,99937.88
2023-05-10T19:30:36.218Z,99930.22
2023-05-10T19:35:53.319Z,99934.75
2023-05-10T19:38:23.504Z,99937.50
2023-05-10T19:41:01.249Z,99934.81
2023-05-10T19:43:33.935Z,99932.53
2023-05-10T19:46:03.553Z,99935.19
2023-05-10T19:48:34.436Z,99931.38
2023-05-10T19:51:06.855Z,99937.16
2023-05-10T19:53:46.102Z,99935.75
2023-05-10T19:56:27.176Z,99926.59
2023-05-10T19:58:55.287Z,99929.25
2023-05-10T20:01:25.336Z,99935.41
2023-05-10T20:03:55.323Z,99925.19
2023-05-10T20:06:23.204Z,99928.44
2023-05-10T20:11:23.597Z,99931.13
2023-05-10T20:13:57.422Z,99930.53
2023-05-10T20:16:27.095Z,99935.03
2023-05-10T20:18:56.500Z,99933.91
2023-05-10T20:21:27.343Z,99930.88
2023-05-10T20:23:55.449Z,99926.16
2023-05-10T20:26:29.409Z,99930.63
2023-05-10T20:29:06.892Z,99924.03
2023-05-10T20:31:35.530Z,99926.00
2023-05-10T20:34:05.632Z,99933.53
2023-05-10T20:36:40.260Z,99927.94
2023-05-10T20:39:10.189Z,99923.75
2023-05-10T20:41:39.508Z,99933.81
2023-05-10T20:44:07.232Z,99928.88
2023-05-10T20:46:44.588Z,99933.34
2023-05-10T20:49:20.104Z,99930.22
2023-05-10T20:54:24.485Z,99937.88
2023-05-10T20:56:53.149Z,99937.12
2023-05-10T20:59:22.008Z,99936.34
2023-05-10T21:01:50.180Z,99938.50
2023-05-10T21:04:18.724Z,99935.81
2023-05-10T21:06:48.160Z,99936.34
2023-05-10T21:09:17.802Z,99925.66
2023-05-10T21:11:46.030Z,99932.31
2023-05-10T21:14:14.616Z,99923.50
2023-05-10T21:16:42.481Z,99927.34
2023-05-10T21:19:09.993Z,99922.69
2023-05-10T21:21:37.389Z,99925.03
2023-05-10T21:24:08.377Z,99927.47
2023-05-10T21:26:43.204Z,99932.06
2023-05-10T21:29:11.356Z,99928.75
2023-05-10T21:31:39.397Z,99925.66
2023-05-10T21:34:07.067Z,99931.34
2023-05-10T21:36:36.959Z,99933.28
2023-05-10T21:39:05.629Z,99935.06
2023-05-10T21:41:33.397Z,99935.94
2023-05-10T21:44:01.693Z,99929.00
2023-05-10T21:46:30.458Z,99935.47
2023-05-10T21:48:59.474Z,99927.34
2023-05-10T21:51:29.341Z,99939.84
2023-05-10T21:53:57.284Z,99931.09
2023-05-10T21:56:24.965Z,99934.53
2023-05-10T21:58:56.628Z,99933.81
2023-05-10T22:01:24.141Z,99936.34
2023-05-10T22:03:51.959Z,99942.66
2023-05-10T22:06:26.084Z,99945.84
2023-05-10T22:08:54.117Z,99941.28
2023-05-10T22:11:23.302Z,99945.50
2023-05-10T22:13:52.323Z,99947.25
2023-05-10T22:16:22.736Z,99951.09
2023-05-10T22:18:51.050Z,99951.72
2023-05-10T22:21:18.694Z,99957.31
2023-05-10T22:23:46.584Z,99945.94
2023-05-10T22:26:13.829Z,99950.53
2023-05-10T22:28:43.152Z,99947.41
2023-05-10T22:31:12.399Z,99951.28
2023-05-10T22:33:40.312Z,99954.66
2023-05-10T22:36:08.362Z,99951.25
2023-05-10T22:38:36.553Z,99949.50
2023-05-10T22:41:05.244Z,99945.59
2023-05-10T22:43:33.652Z,99951.62
2023-05-10T22:46:02.230Z,99946.72
2023-05-10T22:48:31.624Z,99949.38
2023-05-10T22:51:00.137Z,99951.59
2023-05-10T22:53:27.948Z,99956.72
2023-05-10T22:55:55.398Z,99958.03
2023-05-10T22:58:33.294Z,99945.94
2023-05-10T23:01:00.823Z,99951.69
2023-05-10T23:03:36.505Z,99956.22
2023-05-10T23:06:07.843Z,99960.69
2023-05-10T23:08:35.439Z,99960.38
2023-05-10T23:11:05.256Z,99959.47
2023-05-10T23:13:33.521Z,99961.94
2023-05-10T23:16:07.574Z,99960.06
2023-05-10T23:18:35.552Z,99959.16
2023-05-10T23:21:03.089Z,99958.56
2023-05-10T23:23:34.033Z,99947.34
2023-05-10T23:26:02.903Z,99954.94
2023-05-10T23:28:32.369Z,99959.09
2023-05-10T23:30:59.615Z,99956.94
2023-05-10T23:33:34.369Z,99965.41
2023-05-10T23:36:02.530Z,99958.09
2023-05-10T23:38:33.461Z,99962.72
2023-05-10T23:41:01.048Z,99962.22
2023-05-10T23:43:32.406Z,99959.88
2023-05-10T23:46:01.669Z,99961.78
2023-05-10T23:48:32.528Z,99961.88
2023-05-10T23:50:59.833Z,99966.06
2023-05-10T23:53:34.589Z,99968.28
2023-05-10T23:56:02.453Z,99974.38
2023-05-10T23:58:31.683Z,99976.69
